Campbelltown, Australia
Current Conditions -  °F | °C
As of 1:00 PM on Sunday 21 Dec 2014 (Local Time) from YSSY Reporting Station
Few Clouds Few Clouds  
Wind Chill: 79°   Ceiling: Unl
Heat Index: 80°   Visibility: 6mi
Dew Point: 59°   Wind: 17mph
Humidity: 51%   Direction: 40°NE
Pressure: 30.03"   Gusts: NA
Location:  34.07°S, 150.81°E
Report Text: YSSY 210200Z 04015KT 9999 FEW035 26/15 Q1017 NOSIG
Loading
Personal Weather Stations






























Interactive Weather Map New forecast layout! Learn more

10-Day Weather Forecast

Advertisements
Track Severe Weather on mobile